sensor_id;sensor_type;location;lat;lon;timestamp;temperature;humidity
66096;SHT31;53861;53.422;14.530;2022-09-09T00:01:46;15.79;94.65
66096;SHT31;53861;53.422;14.530;2022-09-09T00:04:24;15.73;94.57
66096;SHT31;53861;53.422;14.530;2022-09-09T00:06:59;15.78;93.85
66096;SHT31;53861;53.422;14.530;2022-09-09T00:09:30;15.73;94.55
66096;SHT31;53861;53.422;14.530;2022-09-09T00:12:01;15.65;93.86
66096;SHT31;53861;53.422;14.530;2022-09-09T00:14:35;15.73;94.70
66096;SHT31;53861;53.422;14.530;2022-09-09T00:17:09;15.69;93.66
66096;SHT31;53861;53.422;14.530;2022-09-09T00:19:41;15.67;93.18
66096;SHT31;53861;53.422;14.530;2022-09-09T00:22:16;15.61;93.84
66096;SHT31;53861;53.422;14.530;2022-09-09T00:24:45;15.61;94.83
66096;SHT31;53861;53.422;14.530;2022-09-09T00:27:19;15.59;94.77
66096;SHT31;53861;53.422;14.530;2022-09-09T00:29:53;15.59;95.54
66096;SHT31;53861;53.422;14.530;2022-09-09T00:32:22;15.58;95.15
66096;SHT31;53861;53.422;14.530;2022-09-09T00:34:54;15.56;94.55
66096;SHT31;53861;53.422;14.530;2022-09-09T00:37:24;15.55;94.25
66096;SHT31;53861;53.422;14.530;2022-09-09T00:39:54;15.56;94.47
66096;SHT31;53861;53.422;14.530;2022-09-09T00:42:25;15.52;94.35
66096;SHT31;53861;53.422;14.530;2022-09-09T00:44:58;15.61;94.23
66096;SHT31;53861;53.422;14.530;2022-09-09T00:47:44;15.55;94.36
66096;SHT31;53861;53.422;14.530;2022-09-09T00:50:29;15.53;94.64
66096;SHT31;53861;53.422;14.530;2022-09-09T00:53:09;15.58;94.19
66096;SHT31;53861;53.422;14.530;2022-09-09T00:55:42;15.59;94.89
66096;SHT31;53861;53.422;14.530;2022-09-09T00:58:12;15.58;93.73
66096;SHT31;53861;53.422;14.530;2022-09-09T01:00:42;15.48;94.26
66096;SHT31;53861;53.422;14.530;2022-09-09T01:03:19;15.49;93.47
66096;SHT31;53861;53.422;14.530;2022-09-09T01:05:55;15.48;94.43
66096;SHT31;53861;53.422;14.530;2022-09-09T01:08:39;15.42;93.70
66096;SHT31;53861;53.422;14.530;2022-09-09T01:11:12;15.30;94.64
66096;SHT31;53861;53.422;14.530;2022-09-09T01:13:44;15.24;94.82
66096;SHT31;53861;53.422;14.530;2022-09-09T01:16:13;15.18;95.62
66096;SHT31;53861;53.422;14.530;2022-09-09T01:18:45;15.10;95.72
66096;SHT31;53861;53.422;14.530;2022-09-09T01:21:18;15.04;95.66
66096;SHT31;53861;53.422;14.530;2022-09-09T01:24:08;14.97;95.77
66096;SHT31;53861;53.422;14.530;2022-09-09T01:26:42;15.02;97.41
66096;SHT31;53861;53.422;14.530;2022-09-09T01:29:12;14.94;96.97
66096;SHT31;53861;53.422;14.530;2022-09-09T01:31:42;14.88;97.16
66096;SHT31;53861;53.422;14.530;2022-09-09T01:34:11;14.85;96.63
66096;SHT31;53861;53.422;14.530;2022-09-09T01:36:42;14.81;96.46
66096;SHT31;53861;53.422;14.530;2022-09-09T01:39:10;14.84;97.22
66096;SHT31;53861;53.422;14.530;2022-09-09T01:41:38;14.80;97.19
66096;SHT31;53861;53.422;14.530;2022-09-09T01:44:07;14.79;97.07
66096;SHT31;53861;53.422;14.530;2022-09-09T01:46:35;14.79;97.30
66096;SHT31;53861;53.422;14.530;2022-09-09T01:49:04;14.80;97.59
66096;SHT31;53861;53.422;14.530;2022-09-09T01:51:32;14.81;97.95
66096;SHT31;53861;53.422;14.530;2022-09-09T01:53:59;14.81;97.95
66096;SHT31;53861;53.422;14.530;2022-09-09T01:56:39;14.80;97.63
66096;SHT31;53861;53.422;14.530;2022-09-09T01:59:23;14.74;97.57
66096;SHT31;53861;53.422;14.530;2022-09-09T02:01:59;14.71;97.54
66096;SHT31;53861;53.422;14.530;2022-09-09T02:04:37;14.70;96.91
66096;SHT31;53861;53.422;14.530;2022-09-09T02:07:13;14.69;96.55
66096;SHT31;53861;53.422;14.530;2022-09-09T02:09:43;14.71;97.43
66096;SHT31;53861;53.422;14.530;2022-09-09T02:12:14;14.69;96.97
66096;SHT31;53861;53.422;14.530;2022-09-09T02:14:50;14.71;96.81
66096;SHT31;53861;53.422;14.530;2022-09-09T02:17:24;14.69;96.98
66096;SHT31;53861;53.422;14.530;2022-09-09T02:19:57;14.64;97.16
66096;SHT31;53861;53.422;14.530;2022-09-09T02:22:28;14.66;97.33
66096;SHT31;53861;53.422;14.530;2022-09-09T02:24:58;14.57;97.03
66096;SHT31;53861;53.422;14.530;2022-09-09T02:27:27;14.56;97.25
66096;SHT31;53861;53.422;14.530;2022-09-09T02:29:57;14.55;97.41
66096;SHT31;53861;53.422;14.530;2022-09-09T02:32:27;14.56;97.23
66096;SHT31;53861;53.422;14.530;2022-09-09T02:34:59;14.55;96.85
66096;SHT31;53861;53.422;14.530;2022-09-09T02:37:34;14.50;97.41
66096;SHT31;53861;53.422;14.530;2022-09-09T02:40:03;14.56;97.72
66096;SHT31;53861;53.422;14.530;2022-09-09T02:42:31;14.60;97.41
66096;SHT31;53861;53.422;14.530;2022-09-09T02:44:59;14.59;97.49
66096;SHT31;53861;53.422;14.530;2022-09-09T02:47:32;14.69;96.92
66096;SHT31;53861;53.422;14.530;2022-09-09T02:50:39;14.77;97.25
66096;SHT31;53861;53.422;14.530;2022-09-09T02:53:26;14.85;97.16
66096;SHT31;53861;53.422;14.530;2022-09-09T02:55:56;14.92;97.34
66096;SHT31;53861;53.422;14.530;2022-09-09T02:58:25;14.95;96.66
66096;SHT31;53861;53.422;14.530;2022-09-09T03:00:53;14.97;97.19
66096;SHT31;53861;53.422;14.530;2022-09-09T03:03:21;15.00;97.25
66096;SHT31;53861;53.422;14.530;2022-09-09T03:05:48;15.05;97.30
66096;SHT31;53861;53.422;14.530;2022-09-09T03:08:15;15.01;97.23
66096;SHT31;53861;53.422;14.530;2022-09-09T03:10:42;15.02;97.33
66096;SHT31;53861;53.422;14.530;2022-09-09T03:13:10;15.02;97.20
66096;SHT31;53861;53.422;14.530;2022-09-09T03:16:20;14.97;96.95
66096;SHT31;53861;53.422;14.530;2022-09-09T03:19:02;14.85;97.04
66096;SHT31;53861;53.422;14.530;2022-09-09T03:21:29;14.83;97.11
66096;SHT31;53861;53.422;14.530;2022-09-09T03:23:56;14.85;97.52
66096;SHT31;53861;53.422;14.530;2022-09-09T03:26:24;14.85;97.71
66096;SHT31;53861;53.422;14.530;2022-09-09T03:28:51;14.83;97.21
66096;SHT31;53861;53.422;14.530;2022-09-09T03:31:20;14.77;97.66
66096;SHT31;53861;53.422;14.530;2022-09-09T03:33:47;14.73;97.19
66096;SHT31;53861;53.422;14.530;2022-09-09T03:36:15;14.69;97.41
66096;SHT31;53861;53.422;14.530;2022-09-09T03:38:42;14.69;97.52
66096;SHT31;53861;53.422;14.530;2022-09-09T03:41:09;14.71;97.87
66096;SHT31;53861;53.422;14.530;2022-09-09T03:43:36;14.67;97.80
66096;SHT31;53861;53.422;14.530;2022-09-09T03:46:04;14.61;97.52
66096;SHT31;53861;53.422;14.530;2022-09-09T03:48:32;14.61;97.83
66096;SHT31;53861;53.422;14.530;2022-09-09T03:50:59;14.53;97.59
66096;SHT31;53861;53.422;14.530;2022-09-09T03:53:28;14.53;97.56
66096;SHT31;53861;53.422;14.530;2022-09-09T03:55:56;14.50;97.89
66096;SHT31;53861;53.422;14.530;2022-09-09T03:58:26;14.43;98.13
66096;SHT31;53861;53.422;14.530;2022-09-09T04:00:55;14.41;97.92
66096;SHT31;53861;53.422;14.530;2022-09-09T04:03:23;14.37;97.94
66096;SHT31;53861;53.422;14.530;2022-09-09T04:05:53;14.32;98.08
66096;SHT31;53861;53.422;14.530;2022-09-09T04:08:21;14.37;98.28
66096;SHT31;53861;53.422;14.530;2022-09-09T04:10:50;14.30;98.15
66096;SHT31;53861;53.422;14.530;2022-09-09T04:13:18;14.25;98.29
66096;SHT31;53861;53.422;14.530;2022-09-09T04:15:50;14.26;98.34
66096;SHT31;53861;53.422;14.530;2022-09-09T04:18:17;14.28;98.49
66096;SHT31;53861;53.422;14.530;2022-09-09T04:20:46;14.28;98.58
66096;SHT31;53861;53.422;14.530;2022-09-09T04:23:15;14.19;98.44
66096;SHT31;53861;53.422;14.530;2022-09-09T04:25:45;14.22;98.54
66096;SHT31;53861;53.422;14.530;2022-09-09T04:28:12;14.28;98.65
66096;SHT31;53861;53.422;14.530;2022-09-09T04:30:40;14.36;98.76
66096;SHT31;53861;53.422;14.530;2022-09-09T04:33:07;14.41;98.84
66096;SHT31;53861;53.422;14.530;2022-09-09T04:35:35;14.51;98.56
66096;SHT31;53861;53.422;14.530;2022-09-09T04:38:03;14.59;98.65
66096;SHT31;53861;53.422;14.530;2022-09-09T04:40:35;14.63;98.82
66096;SHT31;53861;53.422;14.530;2022-09-09T04:43:04;14.66;98.62
66096;SHT31;53861;53.422;14.530;2022-09-09T04:45:31;14.61;98.34
66096;SHT31;53861;53.422;14.530;2022-09-09T04:47:59;14.64;98.42
66096;SHT31;53861;53.422;14.530;2022-09-09T04:50:26;14.73;98.65
66096;SHT31;53861;53.422;14.530;2022-09-09T04:52:54;14.76;98.24
66096;SHT31;53861;53.422;14.530;2022-09-09T04:55:21;14.83;98.38
66096;SHT31;53861;53.422;14.530;2022-09-09T04:57:50;14.85;97.99
66096;SHT31;53861;53.422;14.530;2022-09-09T05:00:17;14.85;97.80
66096;SHT31;53861;53.422;14.530;2022-09-09T05:02:44;14.87;98.19
66096;SHT31;53861;53.422;14.530;2022-09-09T05:05:12;14.91;98.15
66096;SHT31;53861;53.422;14.530;2022-09-09T05:07:39;14.97;98.07
66096;SHT31;53861;53.422;14.530;2022-09-09T05:10:06;15.01;97.93
66096;SHT31;53861;53.422;14.530;2022-09-09T05:12:34;15.12;98.13
66096;SHT31;53861;53.422;14.530;2022-09-09T05:15:03;15.12;97.88
66096;SHT31;53861;53.422;14.530;2022-09-09T05:17:30;15.17;97.91
66096;SHT31;53861;53.422;14.530;2022-09-09T05:19:59;15.17;97.63
66096;SHT31;53861;53.422;14.530;2022-09-09T05:22:28;15.18;97.20
66096;SHT31;53861;53.422;14.530;2022-09-09T05:24:55;15.17;97.57
66096;SHT31;53861;53.422;14.530;2022-09-09T05:27:24;15.27;97.92
66096;SHT31;53861;53.422;14.530;2022-09-09T05:29:51;15.28;97.34
66096;SHT31;53861;53.422;14.530;2022-09-09T05:32:23;15.36;97.36
66096;SHT31;53861;53.422;14.530;2022-09-09T05:34:50;15.31;96.25
66096;SHT31;53861;53.422;14.530;2022-09-09T05:37:23;15.34;96.70
66096;SHT31;53861;53.422;14.530;2022-09-09T05:39:52;15.35;96.45
66096;SHT31;53861;53.422;14.530;2022-09-09T05:42:23;15.39;97.08
66096;SHT31;53861;53.422;14.530;2022-09-09T05:44:53;15.42;97.03
66096;SHT31;53861;53.422;14.530;2022-09-09T05:47:22;15.41;96.84
66096;SHT31;53861;53.422;14.530;2022-09-09T05:49:52;15.41;96.43
66096;SHT31;53861;53.422;14.530;2022-09-09T05:52:22;15.42;96.51
66096;SHT31;53861;53.422;14.530;2022-09-09T05:54:52;15.51;96.77
66096;SHT31;53861;53.422;14.530;2022-09-09T05:57:25;15.58;95.66
66096;SHT31;53861;53.422;14.530;2022-09-09T05:59:52;15.58;95.91
66096;SHT31;53861;53.422;14.530;2022-09-09T06:02:24;15.63;96.45
66096;SHT31;53861;53.422;14.530;2022-09-09T06:04:53;15.65;96.13
66096;SHT31;53861;53.422;14.530;2022-09-09T06:07:23;15.69;95.69
66096;SHT31;53861;53.422;14.530;2022-09-09T06:09:52;15.69;95.81
66096;SHT31;53861;53.422;14.530;2022-09-09T06:12:19;15.73;95.44
66096;SHT31;53861;53.422;14.530;2022-09-09T06:14:48;15.78;94.75
66096;SHT31;53861;53.422;14.530;2022-09-09T06:17:16;15.79;94.96
66096;SHT31;53861;53.422;14.530;2022-09-09T06:19:45;15.79;94.87
66096;SHT31;53861;53.422;14.530;2022-09-09T06:22:12;15.72;94.88
66096;SHT31;53861;53.422;14.530;2022-09-09T06:24:39;15.87;95.35
66096;SHT31;53861;53.422;14.530;2022-09-09T06:27:07;15.93;95.57
66096;SHT31;53861;53.422;14.530;2022-09-09T06:29:34;15.87;95.10
66096;SHT31;53861;53.422;14.530;2022-09-09T06:32:02;15.63;94.95
66096;SHT31;53861;53.422;14.530;2022-09-09T06:34:29;15.79;95.86
66096;SHT31;53861;53.422;14.530;2022-09-09T06:36:57;15.63;94.74
66096;SHT31;53861;53.422;14.530;2022-09-09T06:39:25;15.70;94.78
66096;SHT31;53861;53.422;14.530;2022-09-09T06:41:58;15.76;94.59
66096;SHT31;53861;53.422;14.530;2022-09-09T06:44:27;15.86;94.72
66096;SHT31;53861;53.422;14.530;2022-09-09T06:46:57;15.87;93.42
66096;SHT31;53861;53.422;14.530;2022-09-09T06:49:24;15.99;92.99
66096;SHT31;53861;53.422;14.530;2022-09-09T06:51:51;16.02;93.36
66096;SHT31;53861;53.422;14.530;2022-09-09T06:54:21;15.90;93.53
66096;SHT31;53861;53.422;14.530;2022-09-09T06:56:49;15.87;93.62
66096;SHT31;53861;53.422;14.530;2022-09-09T06:59:16;15.93;93.70
66096;SHT31;53861;53.422;14.530;2022-09-09T07:01:43;16.12;93.23
66096;SHT31;53861;53.422;14.530;2022-09-09T07:04:11;15.95;93.79
66096;SHT31;53861;53.422;14.530;2022-09-09T07:06:40;15.83;94.54
66096;SHT31;53861;53.422;14.530;2022-09-09T07:09:11;15.92;95.00
66096;SHT31;53861;53.422;14.530;2022-09-09T07:11:43;16.13;95.28
66096;SHT31;53861;53.422;14.530;2022-09-09T07:14:12;16.10;94.61
66096;SHT31;53861;53.422;14.530;2022-09-09T07:16:40;16.28;92.70
66096;SHT31;53861;53.422;14.530;2022-09-09T07:19:07;16.34;91.23
66096;SHT31;53861;53.422;14.530;2022-09-09T07:21:35;16.38;91.72
66096;SHT31;53861;53.422;14.530;2022-09-09T07:24:03;16.53;92.27
66096;SHT31;53861;53.422;14.530;2022-09-09T07:26:34;16.68;92.61
66096;SHT31;53861;53.422;14.530;2022-09-09T07:29:03;17.02;91.15
66096;SHT31;53861;53.422;14.530;2022-09-09T07:31:33;17.12;89.37
66096;SHT31;53861;53.422;14.530;2022-09-09T07:34:00;17.26;88.68
66096;SHT31;53861;53.422;14.530;2022-09-09T07:36:29;17.32;87.98
66096;SHT31;53861;53.422;14.530;2022-09-09T07:38:58;17.05;90.72
66096;SHT31;53861;53.422;14.530;2022-09-09T07:41:28;17.16;90.49
66096;SHT31;53861;53.422;14.530;2022-09-09T07:43:56;17.09;90.92
66096;SHT31;53861;53.422;14.530;2022-09-09T07:46:26;16.65;90.87
66096;SHT31;53861;53.422;14.530;2022-09-09T07:48:55;16.78;89.50
66096;SHT31;53861;53.422;14.530;2022-09-09T07:51:24;16.87;91.48
66096;SHT31;53861;53.422;14.530;2022-09-09T07:53:53;17.12;90.38
66096;SHT31;53861;53.422;14.530;2022-09-09T07:56:21;17.62;88.53
66096;SHT31;53861;53.422;14.530;2022-09-09T07:58:50;17.81;87.19
66096;SHT31;53861;53.422;14.530;2022-09-09T08:01:20;18.25;87.08
66096;SHT31;53861;53.422;14.530;2022-09-09T08:03:53;18.31;86.47
66096;SHT31;53861;53.422;14.530;2022-09-09T08:06:20;18.25;86.57
66096;SHT31;53861;53.422;14.530;2022-09-09T08:08:50;18.48;85.77
66096;SHT31;53861;53.422;14.530;2022-09-09T08:11:17;18.15;85.62
66096;SHT31;53861;53.422;14.530;2022-09-09T08:13:45;18.17;87.14
66096;SHT31;53861;53.422;14.530;2022-09-09T08:16:15;18.28;87.24
66096;SHT31;53861;53.422;14.530;2022-09-09T08:18:42;18.14;88.45
66096;SHT31;53861;53.422;14.530;2022-09-09T08:21:15;18.28;85.06
66096;SHT31;53861;53.422;14.530;2022-09-09T08:23:43;18.18;85.53
66096;SHT31;53861;53.422;14.530;2022-09-09T08:26:12;18.56;83.80
66096;SHT31;53861;53.422;14.530;2022-09-09T08:28:43;18.73;84.30
66096;SHT31;53861;53.422;14.530;2022-09-09T08:31:13;20.72;82.65
66096;SHT31;53861;53.422;14.530;2022-09-09T08:33:40;21.35;77.56
66096;SHT31;53861;53.422;14.530;2022-09-09T08:36:10;21.20;77.02
66096;SHT31;53861;53.422;14.530;2022-09-09T08:38:38;21.15;75.91
66096;SHT31;53861;53.422;14.530;2022-09-09T08:44:07;20.56;82.10
66096;SHT31;53861;53.422;14.530;2022-09-09T08:46:44;21.21;77.30
66096;SHT31;53861;53.422;14.530;2022-09-09T08:49:24;21.20;76.48
66096;SHT31;53861;53.422;14.530;2022-09-09T08:51:55;24.16;68.54
66096;SHT31;53861;53.422;14.530;2022-09-09T08:54:26;25.76;64.43
66096;SHT31;53861;53.422;14.530;2022-09-09T08:57:00;23.80;70.97
66096;SHT31;53861;53.422;14.530;2022-09-09T08:59:27;25.05;70.71
66096;SHT31;53861;53.422;14.530;2022-09-09T09:02:01;27.05;61.40
66096;SHT31;53861;53.422;14.530;2022-09-09T09:07:28;27.09;61.66
66096;SHT31;53861;53.422;14.530;2022-09-09T09:10:08;27.97;65.30
66096;SHT31;53861;53.422;14.530;2022-09-09T09:12:40;29.20;57.58
66096;SHT31;53861;53.422;14.530;2022-09-09T09:15:14;29.12;56.10
66096;SHT31;53861;53.422;14.530;2022-09-09T09:17:44;29.37;62.00
66096;SHT31;53861;53.422;14.530;2022-09-09T09:20:12;28.49;61.94
66096;SHT31;53861;53.422;14.530;2022-09-09T09:22:47;29.34;57.64
66096;SHT31;53861;53.422;14.530;2022-09-09T09:25:18;30.00;54.70
66096;SHT31;53861;53.422;14.530;2022-09-09T09:27:51;30.19;54.25
66096;SHT31;53861;53.422;14.530;2022-09-09T09:30:22;30.62;57.08
66096;SHT31;53861;53.422;14.530;2022-09-09T09:32:55;30.09;56.83
66096;SHT31;53861;53.422;14.530;2022-09-09T09:35:23;30.06;50.55
66096;SHT31;53861;53.422;14.530;2022-09-09T09:37:50;30.16;52.36
66096;SHT31;53861;53.422;14.530;2022-09-09T09:40:20;30.76;57.33
66096;SHT31;53861;53.422;14.530;2022-09-09T09:42:51;31.10;52.52
66096;SHT31;53861;53.422;14.530;2022-09-09T09:45:28;30.60;56.32
66096;SHT31;53861;53.422;14.530;2022-09-09T09:47:58;30.02;52.52
66096;SHT31;53861;53.422;14.530;2022-09-09T09:50:25;29.24;58.18
66096;SHT31;53861;53.422;14.530;2022-09-09T09:52:56;30.75;51.89
66096;SHT31;53861;53.422;14.530;2022-09-09T09:55:26;30.91;51.15
66096;SHT31;53861;53.422;14.530;2022-09-09T09:58:01;30.59;53.85
66096;SHT31;53861;53.422;14.530;2022-09-09T10:00:29;30.98;51.98
66096;SHT31;53861;53.422;14.530;2022-09-09T10:02:56;30.53;56.87
66096;SHT31;53861;53.422;14.530;2022-09-09T10:05:25;31.92;51.62
66096;SHT31;53861;53.422;14.530;2022-09-09T10:08:04;32.83;47.18
66096;SHT31;53861;53.422;14.530;2022-09-09T10:10:42;32.74;46.99
66096;SHT31;53861;53.422;14.530;2022-09-09T10:13:18;31.75;52.10
66096;SHT31;53861;53.422;14.530;2022-09-09T10:15:59;30.83;52.90
66096;SHT31;53861;53.422;14.530;2022-09-09T10:18:39;31.14;53.93
66096;SHT31;53861;53.422;14.530;2022-09-09T10:21:18;29.20;54.04
66096;SHT31;53861;53.422;14.530;2022-09-09T10:24:09;27.94;55.99
66096;SHT31;53861;53.422;14.530;2022-09-09T10:26:49;28.12;56.28
66096;SHT31;53861;53.422;14.530;2022-09-09T10:29:30;27.88;54.27
66096;SHT31;53861;53.422;14.530;2022-09-09T10:32:11;27.19;60.44
66096;SHT31;53861;53.422;14.530;2022-09-09T10:34:55;28.15;53.34
66096;SHT31;53861;53.422;14.530;2022-09-09T10:37:36;28.51;53.90
66096;SHT31;53861;53.422;14.530;2022-09-09T10:40:26;28.21;57.93
66096;SHT31;53861;53.422;14.530;2022-09-09T10:43:03;29.17;50.65
66096;SHT31;53861;53.422;14.530;2022-09-09T10:45:37;27.76;53.62
66096;SHT31;53861;53.422;14.530;2022-09-09T10:48:24;27.77;58.38
66096;SHT31;53861;53.422;14.530;2022-09-09T10:51:02;29.02;60.41
66096;SHT31;53861;53.422;14.530;2022-09-09T10:53:42;28.39;52.52
66096;SHT31;53861;53.422;14.530;2022-09-09T10:56:16;27.91;52.83
66096;SHT31;53861;53.422;14.530;2022-09-09T10:58:49;26.94;56.16
66096;SHT31;53861;53.422;14.530;2022-09-09T11:01:20;26.44;60.49
66096;SHT31;53861;53.422;14.530;2022-09-09T11:03:52;25.61;61.84
66096;SHT31;53861;53.422;14.530;2022-09-09T11:06:28;25.74;63.50
66096;SHT31;53861;53.422;14.530;2022-09-09T11:08:57;26.23;59.48
66096;SHT31;53861;53.422;14.530;2022-09-09T11:11:32;29.04;50.64
66096;SHT31;53861;53.422;14.530;2022-09-09T11:14:10;30.60;53.84
66096;SHT31;53861;53.422;14.530;2022-09-09T11:16:43;31.34;52.00
66096;SHT31;53861;53.422;14.530;2022-09-09T11:19:17;30.36;46.79
66096;SHT31;53861;53.422;14.530;2022-09-09T11:21:48;28.25;51.12
66096;SHT31;53861;53.422;14.530;2022-09-09T11:24:22;28.96;56.24
66096;SHT31;53861;53.422;14.530;2022-09-09T11:26:53;27.81;56.13
66096;SHT31;53861;53.422;14.530;2022-09-09T11:32:34;28.58;53.64
66096;SHT31;53861;53.422;14.530;2022-09-09T11:35:11;30.33;52.71
66096;SHT31;53861;53.422;14.530;2022-09-09T11:37:56;29.92;48.71
66096;SHT31;53861;53.422;14.530;2022-09-09T11:40:29;28.04;60.07
66096;SHT31;53861;53.422;14.530;2022-09-09T11:43:02;27.59;52.28
66096;SHT31;53861;53.422;14.530;2022-09-09T11:45:33;27.39;60.69
66096;SHT31;53861;53.422;14.530;2022-09-09T11:48:03;26.99;55.16
66096;SHT31;53861;53.422;14.530;2022-09-09T11:50:35;28.25;52.99
66096;SHT31;53861;53.422;14.530;2022-09-09T11:53:17;27.94;53.68
66096;SHT31;53861;53.422;14.530;2022-09-09T11:55:46;27.39;57.61
66096;SHT31;53861;53.422;14.530;2022-09-09T11:58:17;27.35;53.08
66096;SHT31;53861;53.422;14.530;2022-09-09T12:00:47;26.86;54.67
66096;SHT31;53861;53.422;14.530;2022-09-09T12:03:35;25.98;56.04
66096;SHT31;53861;53.422;14.530;2022-09-09T12:06:17;26.25;56.15
66096;SHT31;53861;53.422;14.530;2022-09-09T12:08:50;25.82;54.93
66096;SHT31;53861;53.422;14.530;2022-09-09T12:11:25;24.96;59.66
66096;SHT31;53861;53.422;14.530;2022-09-09T12:13:55;24.43;60.43
66096;SHT31;53861;53.422;14.530;2022-09-09T12:16:33;25.05;61.23
66096;SHT31;53861;53.422;14.530;2022-09-09T12:19:06;25.89;55.66
66096;SHT31;53861;53.422;14.530;2022-09-09T12:21:39;27.49;55.28
66096;SHT31;53861;53.422;14.530;2022-09-09T12:24:11;27.96;52.23
66096;SHT31;53861;53.422;14.530;2022-09-09T12:26:42;26.91;57.98
66096;SHT31;53861;53.422;14.530;2022-09-09T12:29:26;27.66;61.80
66096;SHT31;53861;53.422;14.530;2022-09-09T12:32:00;27.27;58.59
66096;SHT31;53861;53.422;14.530;2022-09-09T12:34:38;26.49;56.33
66096;SHT31;53861;53.422;14.530;2022-09-09T12:37:12;26.25;60.68
66096;SHT31;53861;53.422;14.530;2022-09-09T12:39:45;27.15;54.15
66096;SHT31;53861;53.422;14.530;2022-09-09T12:42:16;28.49;53.09
66096;SHT31;53861;53.422;14.530;2022-09-09T12:44:54;28.99;52.43
66096;SHT31;53861;53.422;14.530;2022-09-09T12:47:30;29.47;53.38
66096;SHT31;53861;53.422;14.530;2022-09-09T12:50:00;29.51;53.65
66096;SHT31;53861;53.422;14.530;2022-09-09T12:52:30;29.19;53.28
66096;SHT31;53861;53.422;14.530;2022-09-09T12:55:05;29.40;49.77
66096;SHT31;53861;53.422;14.530;2022-09-09T12:57:38;28.89;51.70
66096;SHT31;53861;53.422;14.530;2022-09-09T13:00:11;28.88;53.28
66096;SHT31;53861;53.422;14.530;2022-09-09T13:02:48;28.69;49.27
66096;SHT31;53861;53.422;14.530;2022-09-09T13:05:20;28.61;55.38
66096;SHT31;53861;53.422;14.530;2022-09-09T13:07:48;29.22;57.19
66096;SHT31;53861;53.422;14.530;2022-09-09T13:10:23;29.60;55.94
66096;SHT31;53861;53.422;14.530;2022-09-09T13:12:51;29.19;57.76
66096;SHT31;53861;53.422;14.530;2022-09-09T13:15:21;28.75;50.74
66096;SHT31;53861;53.422;14.530;2022-09-09T13:17:52;28.84;52.87
66096;SHT31;53861;53.422;14.530;2022-09-09T13:20:20;28.51;51.55
66096;SHT31;53861;53.422;14.530;2022-09-09T13:22:48;28.32;50.98
66096;SHT31;53861;53.422;14.530;2022-09-09T13:25:21;28.58;50.00
66096;SHT31;53861;53.422;14.530;2022-09-09T13:27:54;28.32;50.14
66096;SHT31;53861;53.422;14.530;2022-09-09T13:30:24;27.91;52.61
66096;SHT31;53861;53.422;14.530;2022-09-09T13:33:21;27.63;52.31
66096;SHT31;53861;53.422;14.530;2022-09-09T13:35:50;27.86;58.65
66096;SHT31;53861;53.422;14.530;2022-09-09T13:38:19;27.84;53.29
66096;SHT31;53861;53.422;14.530;2022-09-09T13:40:57;27.39;57.78
66096;SHT31;53861;53.422;14.530;2022-09-09T13:43:28;26.81;55.54
66096;SHT31;53861;53.422;14.530;2022-09-09T13:45:58;25.83;59.41
66096;SHT31;53861;53.422;14.530;2022-09-09T13:48:27;25.50;58.92
66096;SHT31;53861;53.422;14.530;2022-09-09T13:51:00;25.04;58.78
66096;SHT31;53861;53.422;14.530;2022-09-09T13:53:28;24.84;59.76
66096;SHT31;53861;53.422;14.530;2022-09-09T13:55:56;24.84;61.30
66096;SHT31;53861;53.422;14.530;2022-09-09T13:58:24;24.98;60.01
66096;SHT31;53861;53.422;14.530;2022-09-09T14:00:52;25.80;60.79
66096;SHT31;53861;53.422;14.530;2022-09-09T14:03:20;25.83;57.94
66096;SHT31;53861;53.422;14.530;2022-09-09T14:05:48;25.32;58.62
66096;SHT31;53861;53.422;14.530;2022-09-09T14:08:24;24.63;59.81
66096;SHT31;53861;53.422;14.530;2022-09-09T14:10:51;24.29;62.98
66096;SHT31;53861;53.422;14.530;2022-09-09T14:13:19;24.26;61.93
66096;SHT31;53861;53.422;14.530;2022-09-09T14:15:48;24.31;60.84
66096;SHT31;53861;53.422;14.530;2022-09-09T14:18:15;24.26;61.09
66096;SHT31;53861;53.422;14.530;2022-09-09T14:20:42;24.23;61.38
66096;SHT31;53861;53.422;14.530;2022-09-09T14:23:12;24.26;63.69
66096;SHT31;53861;53.422;14.530;2022-09-09T14:25:40;24.68;59.18
66096;SHT31;53861;53.422;14.530;2022-09-09T14:28:10;24.65;58.41
66096;SHT31;53861;53.422;14.530;2022-09-09T14:30:38;24.67;59.45
66096;SHT31;53861;53.422;14.530;2022-09-09T14:33:07;24.54;61.01
66096;SHT31;53861;53.422;14.530;2022-09-09T14:35:37;24.44;63.52
66096;SHT31;53861;53.422;14.530;2022-09-09T14:38:07;24.29;62.77
66096;SHT31;53861;53.422;14.530;2022-09-09T14:40:37;24.43;60.27
66096;SHT31;53861;53.422;14.530;2022-09-09T14:43:05;24.31;62.38
66096;SHT31;53861;53.422;14.530;2022-09-09T14:45:32;24.23;62.01
66096;SHT31;53861;53.422;14.530;2022-09-09T14:47:59;24.02;61.84
66096;SHT31;53861;53.422;14.530;2022-09-09T14:50:26;23.96;61.64
66096;SHT31;53861;53.422;14.530;2022-09-09T14:52:54;23.99;61.93
66096;SHT31;53861;53.422;14.530;2022-09-09T14:55:21;23.92;62.19
66096;SHT31;53861;53.422;14.530;2022-09-09T14:57:50;23.78;63.10
66096;SHT31;53861;53.422;14.530;2022-09-09T15:00:17;23.83;63.01
66096;SHT31;53861;53.422;14.530;2022-09-09T15:02:44;23.95;62.32
66096;SHT31;53861;53.422;14.530;2022-09-09T15:05:11;23.89;64.99
66096;SHT31;53861;53.422;14.530;2022-09-09T15:07:38;23.90;62.30
66096;SHT31;53861;53.422;14.530;2022-09-09T15:10:06;24.14;63.40
66096;SHT31;53861;53.422;14.530;2022-09-09T15:12:33;23.92;62.01
66096;SHT31;53861;53.422;14.530;2022-09-09T15:15:03;23.65;65.00
66096;SHT31;53861;53.422;14.530;2022-09-09T15:17:30;23.59;63.39
66096;SHT31;53861;53.422;14.530;2022-09-09T15:19:58;23.73;62.93
66096;SHT31;53861;53.422;14.530;2022-09-09T15:22:25;23.79;63.96
66096;SHT31;53861;53.422;14.530;2022-09-09T15:24:52;23.62;64.00
66096;SHT31;53861;53.422;14.530;2022-09-09T15:27:19;23.46;64.46
66096;SHT31;53861;53.422;14.530;2022-09-09T15:29:46;23.48;63.28
66096;SHT31;53861;53.422;14.530;2022-09-09T15:32:15;23.51;62.73
66096;SHT31;53861;53.422;14.530;2022-09-09T15:34:42;23.35;62.39
66096;SHT31;53861;53.422;14.530;2022-09-09T15:37:12;23.19;63.70
66096;SHT31;53861;53.422;14.530;2022-09-09T15:39:42;23.17;66.44
66096;SHT31;53861;53.422;14.530;2022-09-09T15:42:09;22.97;65.31
66096;SHT31;53861;53.422;14.530;2022-09-09T15:44:40;22.94;66.38
66096;SHT31;53861;53.422;14.530;2022-09-09T15:47:11;22.94;65.36
66096;SHT31;53861;53.422;14.530;2022-09-09T15:49:43;22.91;65.45